sensor_id;sensor_type;location;lat;lon;timestamp;temperature;humidity
15916;DHT22;8057;47.830;-3.870;2023-04-25T00:03:50;8.90;99.90
15916;DHT22;8057;47.830;-3.870;2023-04-25T00:08:00;8.80;99.90
15916;DHT22;8057;47.830;-3.870;2023-04-25T00:12:09;8.70;99.90
15916;DHT22;8057;47.830;-3.870;2023-04-25T00:16:20;8.70;99.90
15916;DHT22;8057;47.830;-3.870;2023-04-25T00:20:29;8.60;99.90
15916;DHT22;8057;47.830;-3.870;2023-04-25T00:24:38;8.70;99.90
15916;DHT22;8057;47.830;-3.870;2023-04-25T00:28:47;8.60;99.90
15916;DHT22;8057;47.830;-3.870;2023-04-25T00:32:58;8.50;99.90
15916;DHT22;8057;47.830;-3.870;2023-04-25T00:37:07;8.30;99.90
15916;DHT22;8057;47.830;-3.870;2023-04-25T00:41:16;8.10;99.90
15916;DHT22;8057;47.830;-3.870;2023-04-25T00:45:28;8.00;99.90
15916;DHT22;8057;47.830;-3.870;2023-04-25T00:49:39;8.10;99.90
15916;DHT22;8057;47.830;-3.870;2023-04-25T00:53:49;8.10;99.90
15916;DHT22;8057;47.830;-3.870;2023-04-25T00:57:59;8.10;99.90
15916;DHT22;8057;47.830;-3.870;2023-04-25T01:02:08;8.00;99.90
15916;DHT22;8057;47.830;-3.870;2023-04-25T01:06:19;7.90;99.90
15916;DHT22;8057;47.830;-3.870;2023-04-25T01:10:29;7.90;99.90
15916;DHT22;8057;47.830;-3.870;2023-04-25T01:14:38;8.00;99.90
15916;DHT22;8057;47.830;-3.870;2023-04-25T01:18:48;8.10;99.90
15916;DHT22;8057;47.830;-3.870;2023-04-25T01:22:59;8.20;99.90
15916;DHT22;8057;47.830;-3.870;2023-04-25T01:27:09;8.20;99.90
15916;DHT22;8057;47.830;-3.870;2023-04-25T01:31:19;8.20;99.90
15916;DHT22;8057;47.830;-3.870;2023-04-25T01:35:28;8.20;99.90
15916;DHT22;8057;47.830;-3.870;2023-04-25T01:39:39;8.10;99.90
15916;DHT22;8057;47.830;-3.870;2023-04-25T01:43:48;8.00;99.90
15916;DHT22;8057;47.830;-3.870;2023-04-25T01:47:58;7.80;99.90
15916;DHT22;8057;47.830;-3.870;2023-04-25T01:52:07;7.60;99.90
15916;DHT22;8057;47.830;-3.870;2023-04-25T01:56:18;7.60;99.90
15916;DHT22;8057;47.830;-3.870;2023-04-25T02:00:27;7.40;99.90
15916;DHT22;8057;47.830;-3.870;2023-04-25T02:04:37;7.40;99.90
15916;DHT22;8057;47.830;-3.870;2023-04-25T02:08:46;7.30;99.90
15916;DHT22;8057;47.830;-3.870;2023-04-25T02:12:57;7.30;99.90
15916;DHT22;8057;47.830;-3.870;2023-04-25T02:17:06;7.30;99.90
15916;DHT22;8057;47.830;-3.870;2023-04-25T02:21:15;7.30;99.90
15916;DHT22;8057;47.830;-3.870;2023-04-25T02:25:25;7.20;99.90
15916;DHT22;8057;47.830;-3.870;2023-04-25T02:29:35;7.30;99.90
15916;DHT22;8057;47.830;-3.870;2023-04-25T02:33:45;7.30;99.90
15916;DHT22;8057;47.830;-3.870;2023-04-25T02:37:55;7.30;99.90
15916;DHT22;8057;47.830;-3.870;2023-04-25T02:42:04;7.30;99.90
15916;DHT22;8057;47.830;-3.870;2023-04-25T02:46:15;7.30;99.90
15916;DHT22;8057;47.830;-3.870;2023-04-25T02:50:34;7.30;99.90
15916;DHT22;8057;47.830;-3.870;2023-04-25T02:54:44;7.20;99.90
15916;DHT22;8057;47.830;-3.870;2023-04-25T02:58:53;7.20;99.90
15916;DHT22;8057;47.830;-3.870;2023-04-25T03:03:03;7.10;99.90
15916;DHT22;8057;47.830;-3.870;2023-04-25T03:07:12;7.10;99.90
15916;DHT22;8057;47.830;-3.870;2023-04-25T03:11:21;7.10;99.90
15916;DHT22;8057;47.830;-3.870;2023-04-25T03:15:30;7.00;99.90
15916;DHT22;8057;47.830;-3.870;2023-04-25T03:19:41;7.00;99.90
15916;DHT22;8057;47.830;-3.870;2023-04-25T03:23:50;7.00;99.90
15916;DHT22;8057;47.830;-3.870;2023-04-25T03:27:59;6.90;99.90
15916;DHT22;8057;47.830;-3.870;2023-04-25T03:32:08;6.90;99.90
15916;DHT22;8057;47.830;-3.870;2023-04-25T03:36:19;6.80;99.90
15916;DHT22;8057;47.830;-3.870;2023-04-25T03:40:28;6.70;99.90
15916;DHT22;8057;47.830;-3.870;2023-04-25T03:44:37;6.80;99.90
15916;DHT22;8057;47.830;-3.870;2023-04-25T03:48:47;6.80;99.90
15916;DHT22;8057;47.830;-3.870;2023-04-25T03:52:58;6.80;99.90
15916;DHT22;8057;47.830;-3.870;2023-04-25T03:57:07;6.60;99.90
15916;DHT22;8057;47.830;-3.870;2023-04-25T04:01:16;6.60;99.90
15916;DHT22;8057;47.830;-3.870;2023-04-25T04:05:25;6.60;99.90
15916;DHT22;8057;47.830;-3.870;2023-04-25T04:09:36;6.50;99.90
15916;DHT22;8057;47.830;-3.870;2023-04-25T04:13:45;6.60;99.90
15916;DHT22;8057;47.830;-3.870;2023-04-25T04:17:55;6.60;99.90
15916;DHT22;8057;47.830;-3.870;2023-04-25T04:22:04;6.60;99.90
15916;DHT22;8057;47.830;-3.870;2023-04-25T04:26:14;6.60;99.90
15916;DHT22;8057;47.830;-3.870;2023-04-25T04:30:24;6.60;99.90
15916;DHT22;8057;47.830;-3.870;2023-04-25T04:34:36;6.50;99.90
15916;DHT22;8057;47.830;-3.870;2023-04-25T04:38:46;6.60;99.90
15916;DHT22;8057;47.830;-3.870;2023-04-25T04:42:57;6.70;99.90
15916;DHT22;8057;47.830;-3.870;2023-04-25T04:47:06;6.70;99.90
15916;DHT22;8057;47.830;-3.870;2023-04-25T04:51:15;6.70;99.90
15916;DHT22;8057;47.830;-3.870;2023-04-25T04:55:24;6.60;99.90
15916;DHT22;8057;47.830;-3.870;2023-04-25T04:59:35;6.70;99.90
15916;DHT22;8057;47.830;-3.870;2023-04-25T05:03:44;6.70;99.90
15916;DHT22;8057;47.830;-3.870;2023-04-25T05:07:53;6.60;99.90
15916;DHT22;8057;47.830;-3.870;2023-04-25T05:12:02;6.60;99.90
15916;DHT22;8057;47.830;-3.870;2023-04-25T05:16:13;6.70;99.90
15916;DHT22;8057;47.830;-3.870;2023-04-25T05:20:22;6.70;99.90
15916;DHT22;8057;47.830;-3.870;2023-04-25T05:24:31;6.70;99.90
15916;DHT22;8057;47.830;-3.870;2023-04-25T05:28:40;6.70;99.90
15916;DHT22;8057;47.830;-3.870;2023-04-25T05:32:51;6.80;99.90
15916;DHT22;8057;47.830;-3.870;2023-04-25T05:37:00;6.90;99.90
15916;DHT22;8057;47.830;-3.870;2023-04-25T05:41:09;6.90;99.90
15916;DHT22;8057;47.830;-3.870;2023-04-25T05:45:18;6.90;99.90
15916;DHT22;8057;47.830;-3.870;2023-04-25T05:49:29;7.00;99.90
15916;DHT22;8057;47.830;-3.870;2023-04-25T05:53:38;7.10;99.90
15916;DHT22;8057;47.830;-3.870;2023-04-25T05:57:47;7.30;99.90
15916;DHT22;8057;47.830;-3.870;2023-04-25T06:01:57;7.30;99.90
15916;DHT22;8057;47.830;-3.870;2023-04-25T06:06:10;7.30;99.90
15916;DHT22;8057;47.830;-3.870;2023-04-25T06:10:19;7.40;99.90
15916;DHT22;8057;47.830;-3.870;2023-04-25T06:14:29;7.50;99.90
15916;DHT22;8057;47.830;-3.870;2023-04-25T06:18:38;7.60;99.90
15916;DHT22;8057;47.830;-3.870;2023-04-25T06:22:48;7.70;99.90
15916;DHT22;8057;47.830;-3.870;2023-04-25T06:26:59;7.90;99.90
15916;DHT22;8057;47.830;-3.870;2023-04-25T06:42:28;8.30;99.90
15916;DHT22;8057;47.830;-3.870;2023-04-25T06:47:17;8.30;99.90
15916;DHT22;8057;47.830;-3.870;2023-04-25T06:52:15;8.30;99.90
15916;DHT22;8057;47.830;-3.870;2023-04-25T06:57:15;8.40;99.90
15916;DHT22;8057;47.830;-3.870;2023-04-25T07:01:38;8.50;99.90
15916;DHT22;8057;47.830;-3.870;2023-04-25T07:05:48;8.70;99.90
15916;DHT22;8057;47.830;-3.870;2023-04-25T15:05:56;12.80;99.90
15916;DHT22;8057;47.830;-3.870;2023-04-25T15:10:06;12.90;99.90
15916;DHT22;8057;47.830;-3.870;2023-04-25T15:14:21;12.80;99.90
15916;DHT22;8057;47.830;-3.870;2023-04-25T15:18:30;12.70;99.90
15916;DHT22;8057;47.830;-3.870;2023-04-25T15:22:43;12.70;99.90
15916;DHT22;8057;47.830;-3.870;2023-04-25T15:26:52;12.70;99.90
15916;DHT22;8057;47.830;-3.870;2023-04-25T15:31:01;12.60;99.90
15916;DHT22;8057;47.830;-3.870;2023-04-25T15:35:11;12.70;99.90
15916;DHT22;8057;47.830;-3.870;2023-04-25T15:39:21;12.70;99.90
15916;DHT22;8057;47.830;-3.870;2023-04-25T15:43:31;12.80;99.90
15916;DHT22;8057;47.830;-3.870;2023-04-25T15:47:43;12.80;99.90
15916;DHT22;8057;47.830;-3.870;2023-04-25T15:51:52;12.90;99.90
15916;DHT22;8057;47.830;-3.870;2023-04-25T15:56:03;12.70;99.90
15916;DHT22;8057;47.830;-3.870;2023-04-25T16:00:13;12.70;99.90
15916;DHT22;8057;47.830;-3.870;2023-04-25T16:04:24;12.70;99.90
15916;DHT22;8057;47.830;-3.870;2023-04-25T16:08:37;12.60;99.90
15916;DHT22;8057;47.830;-3.870;2023-04-25T16:12:48;12.40;99.90
15916;DHT22;8057;47.830;-3.870;2023-04-25T16:16:58;12.30;99.90
15916;DHT22;8057;47.830;-3.870;2023-04-25T16:21:07;12.20;99.90
15916;DHT22;8057;47.830;-3.870;2023-04-25T16:25:16;12.10;99.90
15916;DHT22;8057;47.830;-3.870;2023-04-25T16:29:27;12.10;99.90
15916;DHT22;8057;47.830;-3.870;2023-04-25T16:33:36;12.10;99.90
15916;DHT22;8057;47.830;-3.870;2023-04-25T16:37:45;12.10;99.90
15916;DHT22;8057;47.830;-3.870;2023-04-25T16:41:54;12.10;99.90
15916;DHT22;8057;47.830;-3.870;2023-04-25T16:46:05;12.10;99.90
15916;DHT22;8057;47.830;-3.870;2023-04-25T16:50:17;12.20;99.90
15916;DHT22;8057;47.830;-3.870;2023-04-25T16:54:30;12.20;99.90
15916;DHT22;8057;47.830;-3.870;2023-04-25T16:58:41;12.30;99.90
15916;DHT22;8057;47.830;-3.870;2023-04-25T17:02:52;12.30;99.90
15916;DHT22;8057;47.830;-3.870;2023-04-25T17:07:01;12.30;99.90
15916;DHT22;8057;47.830;-3.870;2023-04-25T17:11:12;12.20;99.90
15916;DHT22;8057;47.830;-3.870;2023-04-25T17:15:26;12.10;99.90
15916;DHT22;8057;47.830;-3.870;2023-04-25T17:24:33;12.40;99.90
15916;DHT22;8057;47.830;-3.870;2023-04-25T17:28:50;12.30;99.90
15916;DHT22;8057;47.830;-3.870;2023-04-25T17:33:00;12.20;99.90
15916;DHT22;8057;47.830;-3.870;2023-04-25T17:37:10;12.30;99.90
15916;DHT22;8057;47.830;-3.870;2023-04-25T17:45:51;12.10;99.90
15916;DHT22;8057;47.830;-3.870;2023-04-25T17:50:01;12.00;99.90
15916;DHT22;8057;47.830;-3.870;2023-04-25T17:54:14;12.10;99.90
15916;DHT22;8057;47.830;-3.870;2023-04-25T17:58:26;12.10;99.90
15916;DHT22;8057;47.830;-3.870;2023-04-25T18:02:38;12.00;99.90
15916;DHT22;8057;47.830;-3.870;2023-04-25T18:15:44;12.00;99.90
15916;DHT22;8057;47.830;-3.870;2023-04-25T18:25:14;12.00;99.90
15916;DHT22;8057;47.830;-3.870;2023-04-25T18:29:24;12.10;99.90
15916;DHT22;8057;47.830;-3.870;2023-04-25T18:33:42;12.00;99.90
15916;DHT22;8057;47.830;-3.870;2023-04-25T18:38:01;12.00;99.90
15916;DHT22;8057;47.830;-3.870;2023-04-25T18:42:21;12.00;99.90
15916;DHT22;8057;47.830;-3.870;2023-04-25T18:46:32;12.00;99.90
15916;DHT22;8057;47.830;-3.870;2023-04-25T18:50:47;11.90;99.90
15916;DHT22;8057;47.830;-3.870;2023-04-25T18:54:56;12.00;99.90
15916;DHT22;8057;47.830;-3.870;2023-04-25T18:59:12;12.00;99.90
15916;DHT22;8057;47.830;-3.870;2023-04-25T19:03:34;11.90;99.90
15916;DHT22;8057;47.830;-3.870;2023-04-25T19:07:44;11.90;99.90
15916;DHT22;8057;47.830;-3.870;2023-04-25T19:11:59;12.00;99.90
15916;DHT22;8057;47.830;-3.870;2023-04-25T19:16:11;11.90;99.90
15916;DHT22;8057;47.830;-3.870;2023-04-25T19:20:28;12.00;99.90
15916;DHT22;8057;47.830;-3.870;2023-04-25T19:24:46;12.00;99.90
15916;DHT22;8057;47.830;-3.870;2023-04-25T19:29:15;12.00;99.90
15916;DHT22;8057;47.830;-3.870;2023-04-25T19:33:28;12.00;99.90
15916;DHT22;8057;47.830;-3.870;2023-04-25T19:37:38;11.90;99.90
15916;DHT22;8057;47.830;-3.870;2023-04-25T19:41:58;11.90;99.90
15916;DHT22;8057;47.830;-3.870;2023-04-25T19:46:09;11.90;99.90
15916;DHT22;8057;47.830;-3.870;2023-04-25T19:50:22;11.80;99.90
15916;DHT22;8057;47.830;-3.870;2023-04-25T19:54:41;11.80;99.90
15916;DHT22;8057;47.830;-3.870;2023-04-25T19:59:06;11.80;99.90
15916;DHT22;8057;47.830;-3.870;2023-04-25T20:03:17;11.90;99.90
15916;DHT22;8057;47.830;-3.870;2023-04-25T20:07:30;11.90;99.90
15916;DHT22;8057;47.830;-3.870;2023-04-25T20:11:39;11.80;99.90
15916;DHT22;8057;47.830;-3.870;2023-04-25T20:15:49;11.70;99.90
15916;DHT22;8057;47.830;-3.870;2023-04-25T20:20:01;11.70;99.90
15916;DHT22;8057;47.830;-3.870;2023-04-25T20:24:19;11.70;99.90
15916;DHT22;8057;47.830;-3.870;2023-04-25T20:28:46;11.60;99.90
15916;DHT22;8057;47.830;-3.870;2023-04-25T20:47:07;11.60;99.90
15916;DHT22;8057;47.830;-3.870;2023-04-25T20:51:20;11.60;99.90
15916;DHT22;8057;47.830;-3.870;2023-04-25T20:55:48;11.60;99.90
15916;DHT22;8057;47.830;-3.870;2023-04-25T21:09:19;11.50;99.90
15916;DHT22;8057;47.830;-3.870;2023-04-25T21:13:31;11.40;99.90
15916;DHT22;8057;47.830;-3.870;2023-04-25T21:17:41;11.40;99.90
15916;DHT22;8057;47.830;-3.870;2023-04-25T21:22:05;11.30;99.90
15916;DHT22;8057;47.830;-3.870;2023-04-25T21:26:19;11.30;99.90
15916;DHT22;8057;47.830;-3.870;2023-04-25T21:30:41;11.30;99.90
15916;DHT22;8057;47.830;-3.870;2023-04-25T21:34:53;11.20;99.90
15916;DHT22;8057;47.830;-3.870;2023-04-25T21:39:23;11.20;99.90
15916;DHT22;8057;47.830;-3.870;2023-04-25T21:43:56;11.10;99.90
15916;DHT22;8057;47.830;-3.870;2023-04-25T21:48:11;11.20;99.90
15916;DHT22;8057;47.830;-3.870;2023-04-25T21:52:21;11.20;99.90
15916;DHT22;8057;47.830;-3.870;2023-04-25T21:56:31;11.20;99.90
15916;DHT22;8057;47.830;-3.870;2023-04-25T22:00:43;11.20;99.90
15916;DHT22;8057;47.830;-3.870;2023-04-25T22:04:53;11.20;99.90
15916;DHT22;8057;47.830;-3.870;2023-04-25T22:09:03;11.10;99.90
15916;DHT22;8057;47.830;-3.870;2023-04-25T22:13:13;11.10;99.90
15916;DHT22;8057;47.830;-3.870;2023-04-25T22:17:25;11.10;99.90
15916;DHT22;8057;47.830;-3.870;2023-04-25T22:21:35;11.10;99.90
15916;DHT22;8057;47.830;-3.870;2023-04-25T22:25:46;11.10;99.90
15916;DHT22;8057;47.830;-3.870;2023-04-25T22:29:59;11.00;99.90
15916;DHT22;8057;47.830;-3.870;2023-04-25T22:38:28;10.90;99.90
15916;DHT22;8057;47.830;-3.870;2023-04-25T22:48:34;10.90;99.90
15916;DHT22;8057;47.830;-3.870;2023-04-25T22:53:06;11.00;99.90
15916;DHT22;8057;47.830;-3.870;2023-04-25T22:57:43;10.90;99.90
15916;DHT22;8057;47.830;-3.870;2023-04-25T23:01:54;11.00;99.90
15916;DHT22;8057;47.830;-3.870;2023-04-25T23:11:13;11.00;99.90
15916;DHT22;8057;47.830;-3.870;2023-04-25T23:51:25;11.10;99.90
15916;DHT22;8057;47.830;-3.870;2023-04-25T23:55:46;11.10;99.90
